createdAt,value
2023-05-09T00:02:00.215Z,93064.16
2023-05-09T00:04:26.858Z,93061.25
2023-05-09T00:06:53.345Z,93058.63
2023-05-09T00:09:19.729Z,93053.38
2023-05-09T00:11:46.209Z,93042.81
2023-05-09T00:14:13.833Z,93047.84
2023-05-09T00:16:40.722Z,93041.50
2023-05-09T00:19:07.449Z,93035.72
2023-05-09T00:21:34.166Z,93039.38
2023-05-09T00:24:01.287Z,93038.56
2023-05-09T00:26:28.247Z,93034.34
2023-05-09T00:28:54.661Z,93033.78
2023-05-09T00:31:21.505Z,93025.31
2023-05-09T00:33:48.422Z,93027.44
2023-05-09T00:36:14.834Z,93015.88
2023-05-09T00:38:41.274Z,93013.25
2023-05-09T00:41:08.234Z,93009.53
2023-05-09T00:43:34.775Z,93011.09
2023-05-09T00:46:01.350Z,93004.75
2023-05-09T00:48:27.864Z,93006.88
2023-05-09T00:50:54.321Z,92999.47
2023-05-09T00:53:21.067Z,93004.97
2023-05-09T00:55:47.669Z,93004.47
2023-05-09T00:58:14.136Z,92999.44
2023-05-09T01:00:40.811Z,93001.53
2023-05-09T01:03:07.620Z,93000.97
2023-05-09T01:05:49.409Z,93008.94
2023-05-09T01:08:21.535Z,93001.66
2023-05-09T01:11:01.302Z,92998.22
2023-05-09T01:13:37.771Z,92994.03
2023-05-09T01:16:35.751Z,92987.66
2023-05-09T01:19:09.479Z,92988.97
2023-05-09T01:21:40.606Z,92985.78
2023-05-09T01:24:19.703Z,92991.09
2023-05-09T01:27:17.874Z,92986.63
2023-05-09T01:29:51.013Z,92986.88
2023-05-09T01:32:21.398Z,92976.88
2023-05-09T01:34:51.683Z,92979.03
2023-05-09T01:37:22.113Z,92978.16
2023-05-09T01:39:53.078Z,92979.47
2023-05-09T01:42:20.955Z,92981.09
2023-05-09T01:44:47.719Z,92973.19
2023-05-09T01:47:16.524Z,92971.56
2023-05-09T01:49:43.537Z,92972.09
2023-05-09T01:52:14.662Z,92974.75
2023-05-09T01:54:42.828Z,92976.03
2023-05-09T01:57:11.894Z,92972.63
2023-05-09T01:59:42.877Z,92967.34
2023-05-09T02:02:10.293Z,92964.97
2023-05-09T02:04:37.344Z,92962.88
2023-05-09T02:07:06.089Z,92970.81
2023-05-09T02:09:32.514Z,92963.44
2023-05-09T02:11:59.037Z,92957.91
2023-05-09T02:14:26.134Z,92954.72
2023-05-09T02:16:52.725Z,92955.28
2023-05-09T02:19:20.196Z,92954.81
2023-05-09T02:21:47.760Z,92946.38
2023-05-09T02:24:14.251Z,92946.84
2023-05-09T02:26:41.356Z,92942.31
2023-05-09T02:29:08.493Z,92939.94
2023-05-09T02:31:35.898Z,92943.88
2023-05-09T02:34:04.723Z,92944.38
2023-05-09T02:36:32.581Z,92944.69
2023-05-09T02:39:01.175Z,92934.16
2023-05-09T02:41:30.120Z,92941.56
2023-05-09T02:43:56.573Z,92948.72
2023-05-09T02:46:23.073Z,92945.78
2023-05-09T02:48:49.685Z,92941.31
2023-05-09T02:51:17.183Z,92939.94
2023-05-09T02:53:43.622Z,92932.03
2023-05-09T02:56:10.871Z,92937.31
2023-05-09T02:58:37.314Z,92946.00
2023-05-09T03:01:04.158Z,92937.31
2023-05-09T03:03:33.999Z,92926.19
2023-05-09T03:06:02.618Z,92931.00
2023-05-09T03:08:29.055Z,92921.00
2023-05-09T03:10:55.699Z,92918.38
2023-05-09T03:13:22.282Z,92924.66
2023-05-09T03:15:48.855Z,92919.94
2023-05-09T03:18:15.307Z,92914.66
2023-05-09T03:20:41.727Z,92923.34
2023-05-09T03:23:10.039Z,92918.38
2023-05-09T03:25:36.843Z,92911.53
2023-05-09T03:28:03.366Z,92911.78
2023-05-09T03:30:29.873Z,92914.63
2023-05-09T03:32:57.287Z,92913.31
2023-05-09T03:35:23.812Z,92910.91
2023-05-09T03:37:50.317Z,92907.72
2023-05-09T03:40:16.814Z,92904.63
2023-05-09T03:42:49.663Z,92907.78
2023-05-09T03:45:16.451Z,92903.25
2023-05-09T03:47:44.929Z,92911.94
2023-05-09T03:50:11.942Z,92899.28
2023-05-09T03:52:38.824Z,92909.84
2023-05-09T03:55:06.536Z,92911.63
2023-05-09T03:57:35.877Z,92908.78
2023-05-09T04:00:05.079Z,92920.41
2023-05-09T04:02:40.532Z,92921.97
2023-05-09T04:05:08.587Z,92916.69
2023-05-09T04:07:37.374Z,92921.97
2023-05-09T04:10:04.975Z,92913.78
2023-05-09T04:12:32.378Z,92909.81
2023-05-09T04:14:59.271Z,92911.91
2023-05-09T04:17:26.574Z,92904.81
2023-05-09T04:19:53.062Z,92913.22
2023-05-09T04:22:19.521Z,92909.78
2023-05-09T04:24:46.021Z,92909.53
2023-05-09T04:27:13.061Z,92906.09
2023-05-09T04:29:40.981Z,92906.88
2023-05-09T04:32:07.625Z,92906.88
2023-05-09T04:34:34.686Z,92906.59
2023-05-09T04:37:06.763Z,92910.28
2023-05-09T04:39:33.407Z,92908.16
2023-05-09T04:42:07.229Z,92909.72
2023-05-09T04:44:35.672Z,92911.81
2023-05-09T04:47:02.292Z,92911.81
2023-05-09T04:49:28.760Z,92916.84
2023-05-09T04:51:56.444Z,92908.69
2023-05-09T04:54:22.896Z,92910.81
2023-05-09T04:56:53.242Z,92914.56
2023-05-09T04:59:23.154Z,92909.00
2023-05-09T05:01:49.745Z,92906.59
2023-05-09T05:04:16.461Z,92905.56
2023-05-09T05:06:43.145Z,92905.00
2023-05-09T05:09:10.518Z,92910.28
2023-05-09T05:11:36.937Z,92903.09
2023-05-09T05:14:04.523Z,92908.28
2023-05-09T05:16:31.171Z,92895.84
2023-05-09T05:18:57.737Z,92899.44
2023-05-09T05:21:25.096Z,92902.28
2023-05-09T05:23:51.713Z,92899.56
2023-05-09T05:26:18.215Z,92896.56
2023-05-09T05:28:44.887Z,92891.50
2023-05-09T05:31:11.877Z,92883.50
2023-05-09T05:33:38.399Z,92889.03
2023-05-09T05:36:05.757Z,92880.28
2023-05-09T05:38:32.240Z,92881.03
2023-05-09T05:40:59.363Z,92883.19
2023-05-09T05:43:27.805Z,92884.72
2023-05-09T05:45:55.024Z,92888.81
2023-05-09T05:48:23.356Z,92885.31
2023-05-09T05:50:50.890Z,92885.38
2023-05-09T05:53:21.179Z,92882.59
2023-05-09T05:55:49.453Z,92881.50
2023-05-09T05:58:16.080Z,92884.41
2023-05-09T06:00:42.523Z,92872.19
2023-05-09T06:03:13.957Z,92869.56
2023-05-09T06:05:47.065Z,92874.94
2023-05-09T06:08:13.565Z,92860.59
2023-05-09T06:10:40.096Z,92859.59
2023-05-09T06:13:06.574Z,92859.09
2023-05-09T06:15:34.477Z,92851.16
2023-05-09T06:18:01.813Z,92844.31
2023-05-09T06:20:28.416Z,92853.31
2023-05-09T06:22:54.902Z,92851.66
2023-05-09T06:25:21.571Z,92851.97
2023-05-09T06:27:47.995Z,92861.75
2023-05-09T06:30:25.317Z,92860.69
2023-05-09T06:32:53.650Z,92857.44
2023-05-09T06:35:20.575Z,92853.94
2023-05-09T06:37:48.687Z,92856.88
2023-05-09T06:40:16.166Z,92859.38
2023-05-09T06:42:42.648Z,92850.00
2023-05-09T06:45:09.562Z,92847.59
2023-05-09T06:47:36.047Z,92844.00
2023-05-09T06:50:02.475Z,92841.66
2023-05-09T06:52:28.942Z,92845.69
2023-05-09T06:54:55.464Z,92845.25
2023-05-09T06:57:22.118Z,92839.97
2023-05-09T06:59:48.555Z,92839.31
2023-05-09T07:02:14.999Z,92832.38
2023-05-09T07:04:41.544Z,92834.16
2023-05-09T07:07:08.026Z,92826.47
2023-05-09T07:09:34.742Z,92830.53
2023-05-09T07:12:01.698Z,92815.91
2023-05-09T07:14:28.291Z,92814.44
2023-05-09T07:17:02.188Z,92808.53
2023-05-09T07:19:36.733Z,92806.38
2023-05-09T07:22:03.219Z,92805.88
2023-05-09T07:24:29.648Z,92801.44
2023-05-09T07:26:56.085Z,92800.44
2023-05-09T07:29:22.532Z,92801.38
2023-05-09T07:31:48.981Z,92791.16
2023-05-09T07:34:16.837Z,92787.84
2023-05-09T07:36:43.454Z,92789.84
2023-05-09T07:39:10.572Z,92786.13
2023-05-09T07:41:37.044Z,92783.34
2023-05-09T07:44:03.490Z,92783.88
2023-05-09T07:46:30.028Z,92787.13
2023-05-09T07:48:56.504Z,92780.50
2023-05-09T07:51:22.950Z,92779.31
2023-05-09T07:53:49.427Z,92774.97
2023-05-09T07:56:16.366Z,92779.69
2023-05-09T07:58:42.778Z,92767.44
2023-05-09T08:01:09.219Z,92767.84
2023-05-09T08:03:35.922Z,92766.63
2023-05-09T08:06:02.469Z,92760.38
2023-05-09T08:08:28.868Z,92756.09
2023-05-09T08:10:56.002Z,92752.66
2023-05-09T08:13:22.483Z,92753.16
2023-05-09T08:15:49.339Z,92747.28
2023-05-09T08:18:16.003Z,92742.97
2023-05-09T08:20:42.597Z,92737.47
2023-05-09T08:23:09.234Z,92739.72
2023-05-09T08:25:35.650Z,92731.50
2023-05-09T08:28:02.124Z,92729.63
2023-05-09T08:30:29.502Z,92721.38
2023-05-09T08:32:56.460Z,92719.97
2023-05-09T08:35:23.427Z,92716.81
2023-05-09T08:37:49.881Z,92707.00
2023-05-09T08:40:17.230Z,92710.84
2023-05-09T08:42:45.964Z,92710.03
2023-05-09T08:45:16.528Z,92699.16
2023-05-09T08:47:43.106Z,92701.50
2023-05-09T08:50:10.175Z,92700.53
2023-05-09T08:52:36.749Z,92695.75
2023-05-09T08:55:04.936Z,92694.28
2023-05-09T08:57:34.948Z,92692.78
2023-05-09T09:00:01.950Z,92694.22
2023-05-09T09:02:29.441Z,92684.84
2023-05-09T09:04:56.324Z,92688.75
2023-05-09T09:07:23.766Z,92693.75
2023-05-09T09:09:52.036Z,92684.34
2023-05-09T09:12:21.757Z,92681.75
2023-05-09T09:14:52.858Z,92675.13
2023-05-09T09:17:23.224Z,92676.81
2023-05-09T09:19:50.750Z,92680.09
2023-05-09T09:22:20.726Z,92672.00
2023-05-09T09:24:47.400Z,92670.53
2023-05-09T09:27:13.926Z,92668.16
2023-05-09T09:29:40.368Z,92662.22
2023-05-09T09:32:07.607Z,92656.69
2023-05-09T09:34:34.147Z,92652.28
2023-05-09T09:37:00.621Z,92652.56
2023-05-09T09:39:27.046Z,92655.34
2023-05-09T09:41:53.819Z,92650.31
2023-05-09T09:44:22.115Z,92645.75
2023-05-09T09:46:55.763Z,92642.22
2023-05-09T09:49:23.715Z,92637.81
2023-05-09T09:51:55.057Z,92635.91
2023-05-09T09:54:21.740Z,92624.94
2023-05-09T09:56:50.531Z,92621.41
2023-05-09T09:59:18.894Z,92620.34
2023-05-09T10:01:58.650Z,92627.69
2023-05-09T10:04:26.819Z,92625.19
2023-05-09T10:06:58.098Z,92621.19
2023-05-09T10:09:26.683Z,92612.19
2023-05-09T10:11:54.917Z,92619.38
2023-05-09T10:14:26.265Z,92616.47
2023-05-09T10:16:56.627Z,92609.72
2023-05-09T10:19:26.301Z,92604.25
2023-05-09T10:21:55.480Z,92596.69
2023-05-09T10:24:29.636Z,92588.16
2023-05-09T10:27:04.102Z,92583.47
2023-05-09T10:29:34.850Z,92582.81
2023-05-09T10:32:06.627Z,92583.88
2023-05-09T10:34:35.604Z,92578.00
2023-05-09T10:37:02.280Z,92573.00
2023-05-09T10:39:30.565Z,92571.06
2023-05-09T10:41:59.050Z,92570.72
2023-05-09T10:44:26.400Z,92564.34
2023-05-09T10:46:53.659Z,92569.81
2023-05-09T10:49:20.908Z,92568.28
2023-05-09T10:51:51.269Z,92568.75
2023-05-09T10:54:37.417Z,92559.81
2023-05-09T10:57:06.255Z,92554.53
2023-05-09T10:59:34.501Z,92558.81
2023-05-09T11:02:03.202Z,92549.69
2023-05-09T11:04:31.187Z,92541.25
2023-05-09T11:06:58.311Z,92535.44
2023-05-09T11:09:37.899Z,92533.28
2023-05-09T11:12:09.628Z,92529.91
2023-05-09T11:14:36.042Z,92531.69
2023-05-09T11:17:21.682Z,92529.03
2023-05-09T11:19:48.190Z,92521.69
2023-05-09T11:22:16.822Z,92516.66
2023-05-09T11:24:46.188Z,92513.56
2023-05-09T11:27:18.901Z,92511.88
2023-05-09T11:29:57.198Z,92509.66
2023-05-09T11:32:34.764Z,92498.88
2023-05-09T11:35:18.580Z,92498.22
2023-05-09T11:37:52.942Z,92489.06
2023-05-09T11:40:21.169Z,92485.69
2023-05-09T11:42:50.064Z,92483.25
2023-05-09T11:45:17.437Z,92487.25
2023-05-09T11:47:45.707Z,92477.66
2023-05-09T11:50:13.795Z,92473.81
2023-05-09T11:52:41.560Z,92468.16
2023-05-09T11:55:10.910Z,92466.59
2023-05-09T11:57:44.939Z,92461.59
2023-05-09T12:00:12.643Z,92457.09
2023-05-09T12:02:39.716Z,92450.63
2023-05-09T12:05:20.130Z,92448.41
2023-05-09T12:07:47.416Z,92438.06
2023-05-09T12:10:19.940Z,92437.94
2023-05-09T12:12:48.182Z,92432.16
2023-05-09T12:15:15.625Z,92428.72
2023-05-09T12:17:47.110Z,92430.63
2023-05-09T12:20:14.865Z,92428.63
2023-05-09T12:22:44.663Z,92425.19
2023-05-09T12:25:11.990Z,92417.06
2023-05-09T12:27:40.661Z,92412.84
2023-05-09T12:30:10.129Z,92413.19
2023-05-09T12:32:39.487Z,92415.84
2023-05-09T12:35:10.565Z,92409.63
2023-05-09T12:37:37.621Z,92404.97
2023-05-09T12:40:15.498Z,92409.81
2023-05-09T12:42:45.965Z,92403.34
2023-05-09T12:45:12.808Z,92406.03
2023-05-09T12:47:41.629Z,92399.91
2023-05-09T12:50:11.502Z,92397.81
2023-05-09T12:52:58.582Z,92399.94
2023-05-09T12:55:29.397Z,92394.22
2023-05-09T12:58:01.386Z,92388.28
2023-05-09T13:00:28.325Z,92392.59
2023-05-09T13:02:55.130Z,92390.22
2023-05-09T13:05:23.644Z,92386.97
2023-05-09T13:07:52.375Z,92380.66
2023-05-09T13:10:27.423Z,92380.44
2023-05-09T13:12:54.038Z,92376.59
2023-05-09T13:15:26.848Z,92361.72
2023-05-09T13:17:54.092Z,92360.88
2023-05-09T13:20:20.930Z,92365.00
2023-05-09T13:22:47.441Z,92361.19
2023-05-09T13:25:13.977Z,92356.38
2023-05-09T13:27:40.413Z,92351.56
2023-05-09T13:30:07.814Z,92341.28
2023-05-09T13:32:34.977Z,92333.00
2023-05-09T13:35:01.460Z,92342.16
2023-05-09T13:37:28.238Z,92333.22
2023-05-09T13:39:55.386Z,92331.50
2023-05-09T13:42:21.852Z,92328.25
2023-05-09T13:44:48.304Z,92332.63
2023-05-09T13:47:14.728Z,92321.34
2023-05-09T13:49:41.197Z,92324.94
2023-05-09T13:52:08.244Z,92326.53
2023-05-09T13:54:35.165Z,92310.19
2023-05-09T13:57:05.326Z,92320.38
2023-05-09T13:59:32.262Z,92314.66
2023-05-09T14:02:00.334Z,92309.94
2023-05-09T14:04:27.511Z,92310.94
2023-05-09T14:06:54.924Z,92309.88
2023-05-09T14:09:22.239Z,92306.28
2023-05-09T14:11:51.633Z,92299.78
2023-05-09T14:14:19.257Z,92302.72
2023-05-09T14:16:46.596Z,92306.06
2023-05-09T14:19:15.199Z,92307.97
2023-05-09T14:21:42.984Z,92305.50
2023-05-09T14:24:10.359Z,92311.00
2023-05-09T14:26:36.939Z,92299.59
2023-05-09T14:29:05.096Z,92296.50
2023-05-09T14:31:32.231Z,92298.88
2023-05-09T14:34:00.289Z,92286.53
2023-05-09T14:36:27.531Z,92281.00
2023-05-09T14:38:54.242Z,92287.19
2023-05-09T14:41:22.119Z,92290.06
2023-05-09T14:43:48.897Z,92283.63
2023-05-09T14:46:15.577Z,92279.19
2023-05-09T14:48:42.116Z,92276.00
2023-05-09T14:51:08.694Z,92275.44
2023-05-09T14:53:39.675Z,92289.34
2023-05-09T14:56:06.878Z,92279.09
2023-05-09T14:58:36.559Z,92270.94
2023-05-09T15:01:04.278Z,92272.53
2023-05-09T15:03:30.995Z,92273.50
2023-05-09T15:05:58.673Z,92269.47
2023-05-09T15:08:25.561Z,92269.03
2023-05-09T15:10:51.980Z,92273.56
2023-05-09T15:13:18.452Z,92275.81
2023-05-09T15:15:44.936Z,92274.59
2023-05-09T15:18:13.227Z,92269.72
2023-05-09T15:20:39.818Z,92256.97
2023-05-09T15:23:07.520Z,92269.81
2023-05-09T15:25:34.472Z,92268.88
2023-05-09T15:28:01.066Z,92272.78
2023-05-09T15:30:27.682Z,92274.38
2023-05-09T15:32:54.246Z,92268.19
2023-05-09T15:35:20.792Z,92259.63
2023-05-09T15:37:47.200Z,92276.03
2023-05-09T15:40:13.967Z,92266.69
2023-05-09T15:42:40.955Z,92269.84
2023-05-09T15:45:08.119Z,92279.81
2023-05-09T15:47:34.655Z,92272.94
2023-05-09T15:50:01.322Z,92276.84
2023-05-09T15:52:27.858Z,92274.84
2023-05-09T15:54:56.111Z,92269.69
2023-05-09T15:57:23.024Z,92273.28
2023-05-09T15:59:49.450Z,92266.22
2023-05-09T16:02:15.864Z,92269.50
2023-05-09T16:04:43.851Z,92270.16
2023-05-09T16:07:11.000Z,92265.47
2023-05-09T16:09:37.840Z,92272.00
2023-05-09T16:12:04.668Z,92267.50
2023-05-09T16:14:31.247Z,92275.44
2023-05-09T16:16:57.723Z,92271.47
2023-05-09T16:19:24.228Z,92265.38
2023-05-09T16:21:50.711Z,92260.69
2023-05-09T16:24:17.393Z,92261.78
2023-05-09T16:26:43.863Z,92252.25
2023-05-09T16:29:11.119Z,92254.31
2023-05-09T16:31:37.707Z,92249.50
2023-05-09T16:34:04.304Z,92251.53
2023-05-09T16:36:33.552Z,92252.41
2023-05-09T16:39:00.002Z,92252.59
2023-05-09T16:41:27.042Z,92249.47
2023-05-09T16:43:53.702Z,92242.44
2023-05-09T16:46:20.191Z,92242.75
2023-05-09T16:48:46.620Z,92240.59
2023-05-09T16:51:13.043Z,92238.06
2023-05-09T16:53:39.482Z,92242.63
2023-05-09T16:56:07.467Z,92237.13
2023-05-09T16:58:35.462Z,92237.59
2023-05-09T17:01:03.555Z,92230.72
2023-05-09T17:03:30.120Z,92233.44
2023-05-09T17:05:56.601Z,92234.81
2023-05-09T17:08:23.398Z,92241.63
2023-05-09T17:10:49.841Z,92234.22
2023-05-09T17:13:16.321Z,92226.38
2023-05-09T17:15:43.224Z,92233.19
2023-05-09T17:18:09.796Z,92240.38
2023-05-09T17:20:36.274Z,92243.53
2023-05-09T17:23:02.723Z,92240.00
2023-05-09T17:25:29.184Z,92242.63
2023-05-09T17:27:55.652Z,92234.09
2023-05-09T17:30:23.214Z,92235.00
2023-05-09T17:32:50.197Z,92238.03
2023-05-09T17:35:19.311Z,92239.34
2023-05-09T17:37:46.115Z,92244.63
2023-05-09T17:40:12.898Z,92244.28
2023-05-09T17:42:39.425Z,92239.94
2023-05-09T17:45:06.493Z,92243.31
2023-05-09T17:47:32.989Z,92230.66
2023-05-09T17:49:59.474Z,92230.81
2023-05-09T17:52:25.974Z,92234.91
2023-05-09T17:54:53.030Z,92226.22
2023-05-09T17:57:19.479Z,92222.81
2023-05-09T17:59:47.827Z,92217.81
2023-05-09T18:02:14.711Z,92222.94
2023-05-09T18:04:41.138Z,92213.75
2023-05-09T18:07:08.170Z,92220.00
2023-05-09T18:09:34.620Z,92222.63
2023-05-09T18:12:01.012Z,92215.59
2023-05-09T18:14:27.485Z,92225.41
2023-05-09T18:16:53.888Z,92218.50
2023-05-09T18:19:20.486Z,92217.72
2023-05-09T18:21:47.089Z,92217.72
2023-05-09T18:24:14.914Z,92215.06
2023-05-09T18:26:42.752Z,92218.78
2023-05-09T18:29:09.627Z,92220.66
2023-05-09T18:31:38.747Z,92227.34
2023-05-09T18:34:05.922Z,92220.56
2023-05-09T18:36:32.692Z,92225.97
2023-05-09T18:38:59.491Z,92217.41
2023-05-09T18:41:26.400Z,92218.75
2023-05-09T18:43:53.091Z,92218.56
2023-05-09T18:46:22.231Z,92223.66
2023-05-09T18:48:51.189Z,92217.81
2023-05-09T18:51:18.957Z,92218.28
2023-05-09T18:53:47.177Z,92217.41
2023-05-09T18:56:13.680Z,92216.94
2023-05-09T18:58:40.289Z,92218.50
2023-05-09T19:01:11.116Z,92219.59
2023-05-09T19:03:43.663Z,92225.19
2023-05-09T19:06:12.954Z,92221.94
2023-05-09T19:08:40.594Z,92228.84
2023-05-09T19:11:07.247Z,92220.06
2023-05-09T19:13:37.072Z,92218.03
2023-05-09T19:16:07.904Z,92220.94
2023-05-09T19:18:34.680Z,92222.91
2023-05-09T19:21:01.537Z,92215.38
2023-05-09T19:23:28.007Z,92220.84
2023-05-09T19:25:54.955Z,92225.16
2023-05-09T19:28:22.883Z,92226.13
2023-05-09T19:30:50.211Z,92228.69
2023-05-09T19:33:16.851Z,92228.31
2023-05-09T19:35:43.757Z,92227.72
2023-05-09T19:38:11.813Z,92227.72
2023-05-09T19:40:39.148Z,92231.34
2023-05-09T19:43:05.571Z,92225.84
2023-05-09T19:45:32.097Z,92223.69
2023-05-09T19:47:59.010Z,92220.41
2023-05-09T19:50:25.566Z,92227.16
2023-05-09T19:52:52.048Z,92229.69
2023-05-09T19:55:18.498Z,92230.84
2023-05-09T19:57:44.987Z,92221.28
2023-05-09T20:00:12.143Z,92227.59
2023-05-09T20:02:39.315Z,92230.06
2023-05-09T20:05:06.276Z,92219.88
2023-05-09T20:07:32.720Z,92222.44
2023-05-09T20:09:59.195Z,92225.16
2023-05-09T20:12:27.316Z,92222.44
2023-05-09T20:14:55.087Z,92219.13
2023-05-09T20:17:27.372Z,92225.06
2023-05-09T20:19:53.924Z,92223.44
2023-05-09T20:22:20.615Z,92218.16
2023-05-09T20:24:47.076Z,92216.38
2023-05-09T20:27:13.590Z,92217.56
2023-05-09T20:29:39.992Z,92220.38
2023-05-09T20:32:06.694Z,92216.19
2023-05-09T20:34:33.167Z,92222.94
2023-05-09T20:36:59.595Z,92222.44
2023-05-09T20:39:26.840Z,92222.44
2023-05-09T20:41:55.462Z,92224.03
2023-05-09T20:44:21.952Z,92213.25
2023-05-09T20:46:48.393Z,92221.47
2023-05-09T20:49:15.399Z,92225.16
2023-05-09T20:51:42.001Z,92226.09
2023-05-09T20:54:08.423Z,92229.41
2023-05-09T20:56:35.507Z,92218.44
2023-05-09T20:59:03.820Z,92224.31
2023-05-09T21:01:37.349Z,92226.84
2023-05-09T21:04:05.536Z,92227.66
2023-05-09T21:06:33.009Z,92221.56
2023-05-09T21:08:59.515Z,92216.97
2023-05-09T21:11:26.025Z,92220.00
2023-05-09T21:13:52.414Z,92211.72
2023-05-09T21:16:18.840Z,92217.38
2023-05-09T21:18:45.294Z,92217.50
2023-05-09T21:21:11.769Z,92215.66
2023-05-09T21:23:38.214Z,92212.59
2023-05-09T21:26:04.761Z,92211.44
2023-05-09T21:28:31.392Z,92220.44
2023-05-09T21:30:59.871Z,92220.44
2023-05-09T21:33:26.299Z,92214.00
2023-05-09T21:35:52.704Z,92210.00
2023-05-09T21:38:19.130Z,92217.13
2023-05-09T21:40:45.644Z,92213.00
2023-05-09T21:43:12.127Z,92221.91
2023-05-09T21:45:38.562Z,92217.13
2023-05-09T21:48:05.326Z,92211.84
2023-05-09T21:50:31.831Z,92213.00
2023-05-09T21:52:58.291Z,92219.16
2023-05-09T21:55:24.735Z,92212.31
2023-05-09T21:57:51.151Z,92210.25
2023-05-09T22:00:18.099Z,92213.56
2023-05-09T22:02:44.751Z,92216.00
2023-05-09T22:05:11.848Z,92207.28
2023-05-09T22:07:38.738Z,92209.81
2023-05-09T22:10:05.953Z,92208.03
2023-05-09T22:12:32.413Z,92209.13
2023-05-09T22:14:59.008Z,92214.13
2023-05-09T22:17:25.983Z,92217.03
2023-05-09T22:19:52.580Z,92212.16
2023-05-09T22:22:19.127Z,92217.44
2023-05-09T22:24:45.861Z,92216.97
2023-05-09T22:27:12.528Z,92213.44
2023-05-09T22:29:38.978Z,92214.41
2023-05-09T22:32:07.664Z,92220.28
2023-05-09T22:34:34.967Z,92227.09
2023-05-09T22:37:01.410Z,92226.44
2023-05-09T22:39:27.882Z,92224.56
2023-05-09T22:41:54.312Z,92234.41
2023-05-09T22:44:20.782Z,92225.16
2023-05-09T22:46:47.260Z,92223.19
2023-05-09T22:49:13.676Z,92232.44
2023-05-09T22:51:40.134Z,92231.94
2023-05-09T22:54:06.543Z,92234.25
2023-05-09T22:56:33.161Z,92240.28
2023-05-09T22:58:59.665Z,92238.47
2023-05-09T23:01:27.082Z,92237.50
2023-05-09T23:03:53.540Z,92241.91
2023-05-09T23:06:19.948Z,92248.47
2023-05-09T23:08:46.401Z,92237.94
2023-05-09T23:11:12.863Z,92245.38
2023-05-09T23:13:39.280Z,92246.84
2023-05-09T23:16:05.950Z,92241.84
2023-05-09T23:18:32.347Z,92241.72
2023-05-09T23:20:58.747Z,92241.50
2023-05-09T23:23:25.198Z,92242.34
2023-05-09T23:25:51.608Z,92238.16
2023-05-09T23:28:20.104Z,92227.41
2023-05-09T23:30:46.488Z,92227.41
2023-05-09T23:33:12.882Z,92229.31
2023-05-09T23:35:39.282Z,92224.13
2023-05-09T23:38:05.881Z,92226.88
2023-05-09T23:40:32.433Z,92234.03
2023-05-09T23:42:58.928Z,92231.41
2023-05-09T23:45:25.614Z,92227.97
2023-05-09T23:47:52.314Z,92221.88
2023-05-09T23:50:19.049Z,92233.97
2023-05-09T23:52:49.147Z,92235.31
2023-05-09T23:55:15.614Z,92235.25
2023-05-09T23:57:42.164Z,92231.56
